KPLN

Pellston Regional of Emmet County Airport

Pellston, Michigan, USA
METAR KPLN 161754Z AUTO 32012KT 10SM OVC028 M09/M15 A3027 RMK AO2 SLP262 T10941150 11094 21106 51004
Observed Flight Rules
Jan-16 @ 17:54 UTC (32 minutes ago) Marginal Visual Flight Rules
Wind Visibility Clouds
320° at 12 knots 10 miles
  • Overcast at 2,800' AGL
Temperatures Readings
Current -9°C / 16°F
Dewpoint -15°C / 5°F
Humidity 62%
Altimeter 30.27" Hg
Pressure 1026.2 hPa
Elevation 217
METAR KPLN 161754Z AUTO 32012KT 10SM OVC028 M09/M15 A3027 RMK AO2 SLP262 T10941150 11094 21106 51004
Observed Flight Rules
Jan-16 @ 17:54 UTC
(32 minutes ago)
MVFR
Wind Visibility
320° at 12 knots 10 miles
Clouds
  • Overcast at 2,800' AGL
Temperature Dewpoint
-9°C / 16°F -15°C / 5°F
Humidity Altimeter Pressure
62% 30.27" Hg 1026.2 hPa